sensor_id;sensor_type;location;lat;lon;timestamp;P1;durP1;ratioP1;P2;durP2;ratioP2
10309;SDS011;5200;43.236;27.986;2022-10-16T00:01:13;9.40;;;7.18;;
10309;SDS011;5200;43.236;27.986;2022-10-16T00:03:43;8.98;;;6.38;;
10309;SDS011;5200;43.236;27.986;2022-10-16T00:06:12;11.75;;;6.70;;
10309;SDS011;5200;43.236;27.986;2022-10-16T00:08:40;9.45;;;5.95;;
10309;SDS011;5200;43.236;27.986;2022-10-16T00:11:08;11.80;;;6.15;;
10309;SDS011;5200;43.236;27.986;2022-10-16T00:13:38;6.80;;;5.45;;
10309;SDS011;5200;43.236;27.986;2022-10-16T00:16:06;12.85;;;6.40;;
10309;SDS011;5200;43.236;27.986;2022-10-16T00:18:35;7.28;;;6.07;;
10309;SDS011;5200;43.236;27.986;2022-10-16T00:21:03;8.63;;;5.63;;
10309;SDS011;5200;43.236;27.986;2022-10-16T00:23:32;9.13;;;6.40;;
10309;SDS011;5200;43.236;27.986;2022-10-16T00:26:00;14.85;;;6.80;;
10309;SDS011;5200;43.236;27.986;2022-10-16T00:28:28;9.00;;;6.28;;
10309;SDS011;5200;43.236;27.986;2022-10-16T00:30:56;11.88;;;8.25;;
10309;SDS011;5200;43.236;27.986;2022-10-16T00:33:23;7.40;;;5.78;;
10309;SDS011;5200;43.236;27.986;2022-10-16T00:35:50;17.80;;;10.80;;
10309;SDS011;5200;43.236;27.986;2022-10-16T00:38:17;19.17;;;9.13;;
10309;SDS011;5200;43.236;27.986;2022-10-16T00:40:45;11.93;;;8.02;;
10309;SDS011;5200;43.236;27.986;2022-10-16T00:43:13;7.05;;;5.78;;
10309;SDS011;5200;43.236;27.986;2022-10-16T00:45:59;9.88;;;7.03;;
10309;SDS011;5200;43.236;27.986;2022-10-16T00:48:26;9.10;;;5.75;;
10309;SDS011;5200;43.236;27.986;2022-10-16T00:50:54;10.05;;;6.15;;
10309;SDS011;5200;43.236;27.986;2022-10-16T00:53:21;7.20;;;5.25;;
10309;SDS011;5200;43.236;27.986;2022-10-16T00:55:51;10.70;;;6.30;;
10309;SDS011;5200;43.236;27.986;2022-10-16T00:58:18;9.95;;;7.45;;
10309;SDS011;5200;43.236;27.986;2022-10-16T01:00:46;8.13;;;5.57;;
10309;SDS011;5200;43.236;27.986;2022-10-16T01:03:23;8.15;;;5.32;;
10309;SDS011;5200;43.236;27.986;2022-10-16T01:05:54;10.13;;;5.20;;
10309;SDS011;5200;43.236;27.986;2022-10-16T01:08:34;5.85;;;4.85;;
10309;SDS011;5200;43.236;27.986;2022-10-16T01:11:14;5.70;;;5.07;;
10309;SDS011;5200;43.236;27.986;2022-10-16T01:13:50;6.53;;;5.20;;
10309;SDS011;5200;43.236;27.986;2022-10-16T01:16:24;9.25;;;5.18;;
10309;SDS011;5200;43.236;27.986;2022-10-16T01:18:57;6.32;;;4.70;;
10309;SDS011;5200;43.236;27.986;2022-10-16T01:21:36;7.60;;;5.00;;
10309;SDS011;5200;43.236;27.986;2022-10-16T01:24:08;5.90;;;4.47;;
10309;SDS011;5200;43.236;27.986;2022-10-16T01:29:50;6.85;;;5.03;;
10309;SDS011;5200;43.236;27.986;2022-10-16T01:32:27;6.95;;;4.53;;
10309;SDS011;5200;43.236;27.986;2022-10-16T01:34:59;8.07;;;4.78;;
10309;SDS011;5200;43.236;27.986;2022-10-16T01:37:32;6.10;;;4.10;;
10309;SDS011;5200;43.236;27.986;2022-10-16T01:40:05;6.22;;;4.30;;
10309;SDS011;5200;43.236;27.986;2022-10-16T01:42:36;6.68;;;4.95;;
10309;SDS011;5200;43.236;27.986;2022-10-16T01:45:08;6.35;;;4.28;;
10309;SDS011;5200;43.236;27.986;2022-10-16T01:47:38;6.05;;;4.40;;
10309;SDS011;5200;43.236;27.986;2022-10-16T01:50:06;4.78;;;4.10;;
10309;SDS011;5200;43.236;27.986;2022-10-16T01:52:35;6.60;;;4.20;;
10309;SDS011;5200;43.236;27.986;2022-10-16T01:55:06;6.60;;;4.10;;
10309;SDS011;5200;43.236;27.986;2022-10-16T01:57:35;7.43;;;3.90;;
10309;SDS011;5200;43.236;27.986;2022-10-16T02:00:08;7.45;;;4.15;;
10309;SDS011;5200;43.236;27.986;2022-10-16T02:02:38;11.45;;;3.53;;
10309;SDS011;5200;43.236;27.986;2022-10-16T02:05:10;7.05;;;3.47;;
10309;SDS011;5200;43.236;27.986;2022-10-16T02:07:42;5.00;;;3.25;;
10309;SDS011;5200;43.236;27.986;2022-10-16T02:10:09;5.70;;;3.40;;
10309;SDS011;5200;43.236;27.986;2022-10-16T02:12:37;4.53;;;3.17;;
10309;SDS011;5200;43.236;27.986;2022-10-16T02:15:09;4.82;;;3.05;;
10309;SDS011;5200;43.236;27.986;2022-10-16T02:17:36;5.50;;;3.60;;
10309;SDS011;5200;43.236;27.986;2022-10-16T02:20:04;5.50;;;3.70;;
10309;SDS011;5200;43.236;27.986;2022-10-16T02:22:32;3.88;;;3.35;;
10309;SDS011;5200;43.236;27.986;2022-10-16T02:25:03;4.32;;;2.78;;
10309;SDS011;5200;43.236;27.986;2022-10-16T02:27:35;3.42;;;3.13;;
10309;SDS011;5200;43.236;27.986;2022-10-16T02:30:11;2.95;;;2.75;;
10309;SDS011;5200;43.236;27.986;2022-10-16T02:32:43;6.45;;;3.08;;
10309;SDS011;5200;43.236;27.986;2022-10-16T02:35:12;3.22;;;2.67;;
10309;SDS011;5200;43.236;27.986;2022-10-16T02:37:42;6.38;;;2.70;;
10309;SDS011;5200;43.236;27.986;2022-10-16T02:40:09;6.07;;;3.28;;
10309;SDS011;5200;43.236;27.986;2022-10-16T02:42:38;3.40;;;2.88;;
10309;SDS011;5200;43.236;27.986;2022-10-16T02:45:07;4.75;;;3.78;;
10309;SDS011;5200;43.236;27.986;2022-10-16T02:47:37;5.32;;;3.35;;
10309;SDS011;5200;43.236;27.986;2022-10-16T02:50:04;6.30;;;3.42;;
10309;SDS011;5200;43.236;27.986;2022-10-16T02:52:31;10.70;;;3.25;;
10309;SDS011;5200;43.236;27.986;2022-10-16T02:54:58;8.30;;;4.00;;
10309;SDS011;5200;43.236;27.986;2022-10-16T02:57:25;5.60;;;2.83;;
10309;SDS011;5200;43.236;27.986;2022-10-16T02:59:52;5.00;;;3.42;;
10309;SDS011;5200;43.236;27.986;2022-10-16T03:02:20;9.70;;;3.88;;
10309;SDS011;5200;43.236;27.986;2022-10-16T03:04:47;5.25;;;2.88;;
10309;SDS011;5200;43.236;27.986;2022-10-16T03:07:14;4.00;;;2.80;;
10309;SDS011;5200;43.236;27.986;2022-10-16T03:09:41;4.20;;;3.13;;
10309;SDS011;5200;43.236;27.986;2022-10-16T03:12:08;4.63;;;3.15;;
10309;SDS011;5200;43.236;27.986;2022-10-16T03:14:37;8.93;;;3.20;;
10309;SDS011;5200;43.236;27.986;2022-10-16T03:17:04;7.43;;;3.13;;
10309;SDS011;5200;43.236;27.986;2022-10-16T03:19:33;8.00;;;3.22;;
10309;SDS011;5200;43.236;27.986;2022-10-16T03:22:00;4.10;;;2.85;;
10309;SDS011;5200;43.236;27.986;2022-10-16T03:24:28;3.78;;;3.08;;
10309;SDS011;5200;43.236;27.986;2022-10-16T03:26:54;3.22;;;2.92;;
10309;SDS011;5200;43.236;27.986;2022-10-16T03:29:21;3.40;;;2.63;;
10309;SDS011;5200;43.236;27.986;2022-10-16T03:31:48;7.25;;;3.65;;
10309;SDS011;5200;43.236;27.986;2022-10-16T03:34:15;4.50;;;3.10;;
10309;SDS011;5200;43.236;27.986;2022-10-16T03:36:43;5.47;;;3.38;;
10309;SDS011;5200;43.236;27.986;2022-10-16T03:39:10;3.78;;;3.20;;
10309;SDS011;5200;43.236;27.986;2022-10-16T03:41:37;5.75;;;3.35;;
10309;SDS011;5200;43.236;27.986;2022-10-16T03:44:04;5.82;;;3.58;;
10309;SDS011;5200;43.236;27.986;2022-10-16T03:46:31;4.43;;;3.13;;
10309;SDS011;5200;43.236;27.986;2022-10-16T03:48:58;5.72;;;3.30;;
10309;SDS011;5200;43.236;27.986;2022-10-16T03:51:25;4.10;;;3.35;;
10309;SDS011;5200;43.236;27.986;2022-10-16T03:53:53;3.28;;;2.97;;
10309;SDS011;5200;43.236;27.986;2022-10-16T03:56:20;3.20;;;2.90;;
10309;SDS011;5200;43.236;27.986;2022-10-16T03:58:47;3.65;;;2.97;;
10309;SDS011;5200;43.236;27.986;2022-10-16T04:01:13;6.80;;;3.17;;
10309;SDS011;5200;43.236;27.986;2022-10-16T04:03:40;8.38;;;3.30;;
10309;SDS011;5200;43.236;27.986;2022-10-16T04:06:07;3.70;;;3.22;;
10309;SDS011;5200;43.236;27.986;2022-10-16T04:08:35;8.07;;;3.63;;
10309;SDS011;5200;43.236;27.986;2022-10-16T04:11:03;7.25;;;3.53;;
10309;SDS011;5200;43.236;27.986;2022-10-16T04:13:30;5.70;;;3.67;;
10309;SDS011;5200;43.236;27.986;2022-10-16T04:15:57;4.68;;;3.55;;
10309;SDS011;5200;43.236;27.986;2022-10-16T04:18:24;5.13;;;4.05;;
10309;SDS011;5200;43.236;27.986;2022-10-16T04:20:52;5.95;;;4.38;;
10309;SDS011;5200;43.236;27.986;2022-10-16T04:23:19;6.45;;;5.30;;
10309;SDS011;5200;43.236;27.986;2022-10-16T04:25:46;7.32;;;5.70;;
10309;SDS011;5200;43.236;27.986;2022-10-16T04:28:14;12.30;;;6.55;;
10309;SDS011;5200;43.236;27.986;2022-10-16T04:30:41;10.80;;;5.90;;
10309;SDS011;5200;43.236;27.986;2022-10-16T04:33:08;8.18;;;5.07;;
10309;SDS011;5200;43.236;27.986;2022-10-16T04:35:35;6.07;;;5.35;;
10309;SDS011;5200;43.236;27.986;2022-10-16T04:38:02;5.93;;;5.35;;
10309;SDS011;5200;43.236;27.986;2022-10-16T04:40:29;9.52;;;6.18;;
10309;SDS011;5200;43.236;27.986;2022-10-16T04:42:58;6.53;;;5.35;;
10309;SDS011;5200;43.236;27.986;2022-10-16T04:45:26;9.38;;;5.45;;
10309;SDS011;5200;43.236;27.986;2022-10-16T04:47:56;6.10;;;4.90;;
10309;SDS011;5200;43.236;27.986;2022-10-16T04:50:23;6.00;;;4.35;;
10309;SDS011;5200;43.236;27.986;2022-10-16T04:52:50;5.85;;;4.32;;
10309;SDS011;5200;43.236;27.986;2022-10-16T04:55:16;4.78;;;3.85;;
10309;SDS011;5200;43.236;27.986;2022-10-16T04:57:43;6.78;;;4.20;;
10309;SDS011;5200;43.236;27.986;2022-10-16T05:00:10;5.75;;;3.88;;
10309;SDS011;5200;43.236;27.986;2022-10-16T05:02:39;7.30;;;4.13;;
10309;SDS011;5200;43.236;27.986;2022-10-16T05:05:07;4.93;;;4.40;;
10309;SDS011;5200;43.236;27.986;2022-10-16T05:07:34;5.10;;;3.65;;
10309;SDS011;5200;43.236;27.986;2022-10-16T05:10:00;10.50;;;3.67;;
10309;SDS011;5200;43.236;27.986;2022-10-16T05:12:27;6.35;;;3.67;;
10309;SDS011;5200;43.236;27.986;2022-10-16T05:14:54;12.55;;;3.65;;
10309;SDS011;5200;43.236;27.986;2022-10-16T05:17:23;3.75;;;3.40;;
10309;SDS011;5200;43.236;27.986;2022-10-16T05:19:52;5.47;;;3.90;;
10309;SDS011;5200;43.236;27.986;2022-10-16T05:22:19;5.05;;;3.97;;
10309;SDS011;5200;43.236;27.986;2022-10-16T05:24:46;4.32;;;3.70;;
10309;SDS011;5200;43.236;27.986;2022-10-16T05:27:13;6.80;;;4.30;;
10309;SDS011;5200;43.236;27.986;2022-10-16T05:29:44;5.78;;;4.18;;
10309;SDS011;5200;43.236;27.986;2022-10-16T05:32:12;6.20;;;3.78;;
10309;SDS011;5200;43.236;27.986;2022-10-16T05:34:39;4.70;;;4.30;;
10309;SDS011;5200;43.236;27.986;2022-10-16T05:37:07;7.78;;;4.85;;
10309;SDS011;5200;43.236;27.986;2022-10-16T05:39:34;7.60;;;4.70;;
10309;SDS011;5200;43.236;27.986;2022-10-16T05:42:02;7.68;;;5.05;;
10309;SDS011;5200;43.236;27.986;2022-10-16T05:44:29;7.20;;;5.10;;
10309;SDS011;5200;43.236;27.986;2022-10-16T05:46:56;9.48;;;4.55;;
10309;SDS011;5200;43.236;27.986;2022-10-16T05:49:23;4.90;;;4.35;;
10309;SDS011;5200;43.236;27.986;2022-10-16T05:51:50;4.55;;;4.13;;
10309;SDS011;5200;43.236;27.986;2022-10-16T05:54:18;6.25;;;4.47;;
10309;SDS011;5200;43.236;27.986;2022-10-16T05:56:45;6.93;;;4.53;;
10309;SDS011;5200;43.236;27.986;2022-10-16T05:59:12;8.38;;;4.50;;
10309;SDS011;5200;43.236;27.986;2022-10-16T06:01:39;4.90;;;4.50;;
10309;SDS011;5200;43.236;27.986;2022-10-16T06:04:06;4.75;;;4.25;;
10309;SDS011;5200;43.236;27.986;2022-10-16T06:06:32;5.72;;;3.88;;
10309;SDS011;5200;43.236;27.986;2022-10-16T06:09:01;3.38;;;3.08;;
10309;SDS011;5200;43.236;27.986;2022-10-16T06:11:31;7.65;;;3.60;;
10309;SDS011;5200;43.236;27.986;2022-10-16T06:14:00;3.15;;;2.80;;
10309;SDS011;5200;43.236;27.986;2022-10-16T06:16:31;4.75;;;3.00;;
10309;SDS011;5200;43.236;27.986;2022-10-16T06:18:59;6.68;;;2.92;;
10309;SDS011;5200;43.236;27.986;2022-10-16T06:21:26;4.68;;;2.63;;
10309;SDS011;5200;43.236;27.986;2022-10-16T06:23:55;4.03;;;3.03;;
10309;SDS011;5200;43.236;27.986;2022-10-16T06:26:24;2.47;;;2.20;;
10309;SDS011;5200;43.236;27.986;2022-10-16T06:28:54;2.67;;;2.47;;
10309;SDS011;5200;43.236;27.986;2022-10-16T06:31:22;6.30;;;2.25;;
10309;SDS011;5200;43.236;27.986;2022-10-16T06:33:52;3.47;;;2.20;;
10309;SDS011;5200;43.236;27.986;2022-10-16T06:36:20;5.80;;;2.67;;
10309;SDS011;5200;43.236;27.986;2022-10-16T06:38:47;6.78;;;2.40;;
10309;SDS011;5200;43.236;27.986;2022-10-16T06:41:14;3.50;;;2.40;;
10309;SDS011;5200;43.236;27.986;2022-10-16T06:43:43;5.00;;;2.30;;
10309;SDS011;5200;43.236;27.986;2022-10-16T06:46:12;3.50;;;2.33;;
10309;SDS011;5200;43.236;27.986;2022-10-16T06:48:40;2.30;;;2.10;;
10309;SDS011;5200;43.236;27.986;2022-10-16T06:51:08;8.40;;;2.42;;
10309;SDS011;5200;43.236;27.986;2022-10-16T06:53:37;3.08;;;2.38;;
10309;SDS011;5200;43.236;27.986;2022-10-16T06:56:09;3.33;;;1.85;;
10309;SDS011;5200;43.236;27.986;2022-10-16T06:58:37;2.17;;;1.98;;
10309;SDS011;5200;43.236;27.986;2022-10-16T07:01:05;2.53;;;2.03;;
10309;SDS011;5200;43.236;27.986;2022-10-16T07:03:35;9.43;;;2.28;;
10309;SDS011;5200;43.236;27.986;2022-10-16T07:06:02;2.10;;;1.90;;
10309;SDS011;5200;43.236;27.986;2022-10-16T07:08:31;2.80;;;2.00;;
10309;SDS011;5200;43.236;27.986;2022-10-16T07:10:59;3.63;;;2.05;;
10309;SDS011;5200;43.236;27.986;2022-10-16T07:13:26;2.22;;;1.95;;
10309;SDS011;5200;43.236;27.986;2022-10-16T07:15:53;6.20;;;2.25;;
10309;SDS011;5200;43.236;27.986;2022-10-16T07:18:20;5.78;;;2.40;;
10309;SDS011;5200;43.236;27.986;2022-10-16T07:20:52;2.30;;;2.10;;
10309;SDS011;5200;43.236;27.986;2022-10-16T07:23:19;3.35;;;2.17;;
10309;SDS011;5200;43.236;27.986;2022-10-16T07:25:52;5.47;;;2.35;;
10309;SDS011;5200;43.236;27.986;2022-10-16T07:28:20;4.38;;;2.28;;
10309;SDS011;5200;43.236;27.986;2022-10-16T07:30:47;2.17;;;1.80;;
10309;SDS011;5200;43.236;27.986;2022-10-16T07:33:14;2.13;;;1.83;;
10309;SDS011;5200;43.236;27.986;2022-10-16T07:35:47;2.85;;;1.95;;
10309;SDS011;5200;43.236;27.986;2022-10-16T07:38:16;5.03;;;1.98;;
10309;SDS011;5200;43.236;27.986;2022-10-16T07:40:43;2.85;;;2.33;;
10309;SDS011;5200;43.236;27.986;2022-10-16T07:43:10;4.68;;;1.90;;
10309;SDS011;5200;43.236;27.986;2022-10-16T07:45:37;5.90;;;2.28;;
10309;SDS011;5200;43.236;27.986;2022-10-16T07:48:04;4.60;;;2.15;;
10309;SDS011;5200;43.236;27.986;2022-10-16T07:50:31;3.67;;;1.60;;
10309;SDS011;5200;43.236;27.986;2022-10-16T07:52:58;5.65;;;1.85;;
10309;SDS011;5200;43.236;27.986;2022-10-16T07:55:26;6.72;;;1.88;;
10309;SDS011;5200;43.236;27.986;2022-10-16T07:57:54;3.80;;;1.85;;
10309;SDS011;5200;43.236;27.986;2022-10-16T08:00:21;3.35;;;1.52;;
10309;SDS011;5200;43.236;27.986;2022-10-16T08:02:48;2.50;;;1.60;;
10309;SDS011;5200;43.236;27.986;2022-10-16T08:05:14;3.00;;;1.60;;
10309;SDS011;5200;43.236;27.986;2022-10-16T08:07:41;1.58;;;1.48;;
10309;SDS011;5200;43.236;27.986;2022-10-16T08:10:19;4.00;;;1.88;;
10309;SDS011;5200;43.236;27.986;2022-10-16T08:12:48;2.15;;;1.60;;
10309;SDS011;5200;43.236;27.986;2022-10-16T08:15:16;7.32;;;1.60;;
10309;SDS011;5200;43.236;27.986;2022-10-16T08:17:43;2.50;;;1.60;;
10309;SDS011;5200;43.236;27.986;2022-10-16T08:20:10;4.55;;;1.65;;
10309;SDS011;5200;43.236;27.986;2022-10-16T08:22:37;2.38;;;1.58;;
10309;SDS011;5200;43.236;27.986;2022-10-16T08:25:04;2.40;;;1.70;;
10309;SDS011;5200;43.236;27.986;2022-10-16T08:27:31;5.68;;;1.80;;
10309;SDS011;5200;43.236;27.986;2022-10-16T08:30:00;3.17;;;2.00;;
10309;SDS011;5200;43.236;27.986;2022-10-16T08:32:27;4.25;;;2.13;;
10309;SDS011;5200;43.236;27.986;2022-10-16T08:34:54;4.10;;;1.77;;
10309;SDS011;5200;43.236;27.986;2022-10-16T08:37:20;4.88;;;1.67;;
10309;SDS011;5200;43.236;27.986;2022-10-16T08:39:47;6.90;;;1.70;;
10309;SDS011;5200;43.236;27.986;2022-10-16T08:42:24;5.80;;;2.20;;
10309;SDS011;5200;43.236;27.986;2022-10-16T08:45:13;3.22;;;1.60;;
10309;SDS011;5200;43.236;27.986;2022-10-16T08:47:53;3.25;;;1.63;;
10309;SDS011;5200;43.236;27.986;2022-10-16T08:50:32;1.83;;;1.50;;
10309;SDS011;5200;43.236;27.986;2022-10-16T08:53:03;3.35;;;1.48;;
10309;SDS011;5200;43.236;27.986;2022-10-16T08:55:33;7.35;;;1.70;;
10309;SDS011;5200;43.236;27.986;2022-10-16T08:58:09;2.15;;;1.58;;
10309;SDS011;5200;43.236;27.986;2022-10-16T09:00:40;4.78;;;2.08;;
10309;SDS011;5200;43.236;27.986;2022-10-16T09:03:11;2.85;;;1.65;;
10309;SDS011;5200;43.236;27.986;2022-10-16T09:08:36;2.15;;;1.90;;
10309;SDS011;5200;43.236;27.986;2022-10-16T09:11:16;3.92;;;1.77;;
10309;SDS011;5200;43.236;27.986;2022-10-16T09:13:51;5.47;;;2.22;;
10309;SDS011;5200;43.236;27.986;2022-10-16T09:16:27;5.72;;;1.90;;
10309;SDS011;5200;43.236;27.986;2022-10-16T09:18:58;6.53;;;1.85;;
10309;SDS011;5200;43.236;27.986;2022-10-16T09:21:32;3.28;;;1.67;;
10309;SDS011;5200;43.236;27.986;2022-10-16T09:24:07;3.13;;;1.95;;
10309;SDS011;5200;43.236;27.986;2022-10-16T09:26:38;4.07;;;2.08;;
10309;SDS011;5200;43.236;27.986;2022-10-16T09:29:05;3.50;;;1.90;;
10309;SDS011;5200;43.236;27.986;2022-10-16T09:31:33;6.22;;;1.77;;
10309;SDS011;5200;43.236;27.986;2022-10-16T09:34:03;2.33;;;1.85;;
10309;SDS011;5200;43.236;27.986;2022-10-16T09:36:34;2.55;;;1.90;;
10309;SDS011;5200;43.236;27.986;2022-10-16T09:39:07;5.95;;;1.65;;
10309;SDS011;5200;43.236;27.986;2022-10-16T09:41:37;2.83;;;1.70;;
10309;SDS011;5200;43.236;27.986;2022-10-16T09:44:15;7.55;;;2.20;;
10309;SDS011;5200;43.236;27.986;2022-10-16T09:46:48;4.05;;;1.98;;
10309;SDS011;5200;43.236;27.986;2022-10-16T09:49:19;5.22;;;2.30;;
10309;SDS011;5200;43.236;27.986;2022-10-16T09:51:48;3.55;;;1.98;;
10309;SDS011;5200;43.236;27.986;2022-10-16T09:54:16;2.03;;;1.70;;
10309;SDS011;5200;43.236;27.986;2022-10-16T09:56:46;4.22;;;1.88;;
10309;SDS011;5200;43.236;27.986;2022-10-16T09:59:17;4.28;;;1.90;;
10309;SDS011;5200;43.236;27.986;2022-10-16T10:01:45;11.93;;;2.55;;
10309;SDS011;5200;43.236;27.986;2022-10-16T10:04:15;7.57;;;2.10;;
10309;SDS011;5200;43.236;27.986;2022-10-16T10:06:43;4.32;;;2.22;;
10309;SDS011;5200;43.236;27.986;2022-10-16T10:09:19;1.90;;;1.70;;
10309;SDS011;5200;43.236;27.986;2022-10-16T10:11:48;2.65;;;1.92;;
10309;SDS011;5200;43.236;27.986;2022-10-16T10:14:18;2.55;;;1.85;;
10309;SDS011;5200;43.236;27.986;2022-10-16T10:16:50;10.18;;;2.35;;
10309;SDS011;5200;43.236;27.986;2022-10-16T10:19:19;3.35;;;2.15;;
10309;SDS011;5200;43.236;27.986;2022-10-16T10:21:47;2.17;;;1.73;;
10309;SDS011;5200;43.236;27.986;2022-10-16T10:24:16;3.28;;;2.40;;
10309;SDS011;5200;43.236;27.986;2022-10-16T10:26:47;2.40;;;2.08;;
10309;SDS011;5200;43.236;27.986;2022-10-16T10:29:28;6.78;;;2.25;;
10309;SDS011;5200;43.236;27.986;2022-10-16T10:32:08;4.47;;;2.70;;
10309;SDS011;5200;43.236;27.986;2022-10-16T10:34:49;6.22;;;2.13;;
10309;SDS011;5200;43.236;27.986;2022-10-16T10:37:30;2.38;;;2.17;;
10309;SDS011;5200;43.236;27.986;2022-10-16T10:40:05;9.15;;;2.10;;
10309;SDS011;5200;43.236;27.986;2022-10-16T10:42:42;6.28;;;2.40;;
10309;SDS011;5200;43.236;27.986;2022-10-16T10:45:18;3.55;;;2.38;;
10309;SDS011;5200;43.236;27.986;2022-10-16T10:47:59;5.00;;;2.17;;
10309;SDS011;5200;43.236;27.986;2022-10-16T10:50:39;5.80;;;2.53;;
10309;SDS011;5200;43.236;27.986;2022-10-16T10:53:11;5.35;;;2.05;;
10309;SDS011;5200;43.236;27.986;2022-10-16T10:55:49;2.33;;;2.10;;
10309;SDS011;5200;43.236;27.986;2022-10-16T10:58:24;7.25;;;2.00;;
10309;SDS011;5200;43.236;27.986;2022-10-16T11:01:04;6.32;;;2.22;;
10309;SDS011;5200;43.236;27.986;2022-10-16T11:03:40;5.85;;;2.20;;
10309;SDS011;5200;43.236;27.986;2022-10-16T11:06:25;2.50;;;1.58;;
10309;SDS011;5200;43.236;27.986;2022-10-16T11:08:55;4.25;;;2.25;;
10309;SDS011;5200;43.236;27.986;2022-10-16T11:11:29;2.65;;;2.25;;
10309;SDS011;5200;43.236;27.986;2022-10-16T11:14:02;2.30;;;1.92;;
10309;SDS011;5200;43.236;27.986;2022-10-16T11:16:35;6.65;;;2.28;;
10309;SDS011;5200;43.236;27.986;2022-10-16T11:19:11;3.22;;;1.88;;
10309;SDS011;5200;43.236;27.986;2022-10-16T11:21:46;1.92;;;1.63;;
10309;SDS011;5200;43.236;27.986;2022-10-16T11:24:19;3.58;;;2.00;;
10309;SDS011;5200;43.236;27.986;2022-10-16T11:26:49;3.60;;;1.90;;
10309;SDS011;5200;43.236;27.986;2022-10-16T11:29:22;2.90;;;2.40;;
10309;SDS011;5200;43.236;27.986;2022-10-16T11:31:54;2.20;;;1.98;;
10309;SDS011;5200;43.236;27.986;2022-10-16T11:34:28;2.78;;;1.75;;
10309;SDS011;5200;43.236;27.986;2022-10-16T11:37:02;2.58;;;2.05;;
10309;SDS011;5200;43.236;27.986;2022-10-16T11:39:35;7.15;;;2.20;;
10309;SDS011;5200;43.236;27.986;2022-10-16T11:42:05;4.53;;;1.90;;
10309;SDS011;5200;43.236;27.986;2022-10-16T11:44:45;4.32;;;2.10;;
10309;SDS011;5200;43.236;27.986;2022-10-16T11:47:23;2.30;;;2.10;;
10309;SDS011;5200;43.236;27.986;2022-10-16T11:49:57;4.22;;;1.73;;
10309;SDS011;5200;43.236;27.986;2022-10-16T11:52:28;4.93;;;2.55;;
10309;SDS011;5200;43.236;27.986;2022-10-16T11:55:14;1.85;;;1.60;;
10309;SDS011;5200;43.236;27.986;2022-10-16T11:57:43;2.70;;;1.67;;
10309;SDS011;5200;43.236;27.986;2022-10-16T12:00:17;3.25;;;1.90;;
10309;SDS011;5200;43.236;27.986;2022-10-16T12:02:54;2.05;;;1.80;;
10309;SDS011;5200;43.236;27.986;2022-10-16T12:05:46;2.30;;;2.03;;
10309;SDS011;5200;43.236;27.986;2022-10-16T12:08:23;5.00;;;1.67;;
10309;SDS011;5200;43.236;27.986;2022-10-16T12:11:03;4.38;;;1.90;;
10309;SDS011;5200;43.236;27.986;2022-10-16T12:13:33;2.55;;;1.98;;
10309;SDS011;5200;43.236;27.986;2022-10-16T12:16:19;5.97;;;2.15;;
10309;SDS011;5200;43.236;27.986;2022-10-16T12:18:48;3.15;;;2.05;;
10309;SDS011;5200;43.236;27.986;2022-10-16T12:21:17;1.90;;;1.80;;
10309;SDS011;5200;43.236;27.986;2022-10-16T12:23:48;1.83;;;1.73;;
10309;SDS011;5200;43.236;27.986;2022-10-16T12:26:23;3.85;;;1.85;;
10309;SDS011;5200;43.236;27.986;2022-10-16T12:28:51;2.05;;;1.52;;
10309;SDS011;5200;43.236;27.986;2022-10-16T12:31:19;4.03;;;2.47;;
10309;SDS011;5200;43.236;27.986;2022-10-16T12:33:57;6.15;;;2.22;;
10309;SDS011;5200;43.236;27.986;2022-10-16T12:36:28;3.40;;;1.92;;
10309;SDS011;5200;43.236;27.986;2022-10-16T12:38:57;4.85;;;1.70;;
10309;SDS011;5200;43.236;27.986;2022-10-16T12:41:26;6.65;;;1.98;;
10309;SDS011;5200;43.236;27.986;2022-10-16T12:43:54;3.65;;;1.70;;
10309;SDS011;5200;43.236;27.986;2022-10-16T12:46:23;4.97;;;2.72;;
10309;SDS011;5200;43.236;27.986;2022-10-16T12:49:05;1.92;;;1.65;;
10309;SDS011;5200;43.236;27.986;2022-10-16T12:51:48;2.13;;;1.90;;
10309;SDS011;5200;43.236;27.986;2022-10-16T12:54:17;2.00;;;1.85;;
10309;SDS011;5200;43.236;27.986;2022-10-16T12:56:49;3.35;;;2.17;;
10309;SDS011;5200;43.236;27.986;2022-10-16T12:59:31;10.57;;;2.22;;
10309;SDS011;5200;43.236;27.986;2022-10-16T13:05:13;4.20;;;1.83;;
10309;SDS011;5200;43.236;27.986;2022-10-16T13:07:51;3.45;;;2.00;;
10309;SDS011;5200;43.236;27.986;2022-10-16T13:10:26;1.83;;;1.73;;
10309;SDS011;5200;43.236;27.986;2022-10-16T13:13:18;2.70;;;1.95;;
10309;SDS011;5200;43.236;27.986;2022-10-16T13:16:06;4.90;;;2.38;;
10309;SDS011;5200;43.236;27.986;2022-10-16T13:18:43;3.97;;;2.40;;
10309;SDS011;5200;43.236;27.986;2022-10-16T13:21:21;2.22;;;2.00;;
10309;SDS011;5200;43.236;27.986;2022-10-16T13:23:59;4.18;;;1.90;;
10309;SDS011;5200;43.236;27.986;2022-10-16T13:26:37;2.83;;;1.90;;
10309;SDS011;5200;43.236;27.986;2022-10-16T13:29:08;4.35;;;2.05;;
10309;SDS011;5200;43.236;27.986;2022-10-16T13:31:36;3.58;;;2.50;;
10309;SDS011;5200;43.236;27.986;2022-10-16T13:34:05;5.75;;;2.05;;
10309;SDS011;5200;43.236;27.986;2022-10-16T13:36:42;4.53;;;1.95;;
10309;SDS011;5200;43.236;27.986;2022-10-16T13:39:12;4.32;;;1.98;;
10309;SDS011;5200;43.236;27.986;2022-10-16T13:41:42;2.97;;;1.92;;
10309;SDS011;5200;43.236;27.986;2022-10-16T13:44:13;6.82;;;2.17;;
10309;SDS011;5200;43.236;27.986;2022-10-16T13:46:44;3.47;;;2.20;;
10309;SDS011;5200;43.236;27.986;2022-10-16T13:49:12;4.85;;;1.90;;
10309;SDS011;5200;43.236;27.986;2022-10-16T13:51:41;3.90;;;1.70;;
10309;SDS011;5200;43.236;27.986;2022-10-16T13:54:22;3.67;;;1.98;;
10309;SDS011;5200;43.236;27.986;2022-10-16T13:56:49;5.00;;;1.75;;
10309;SDS011;5200;43.236;27.986;2022-10-16T13:59:23;3.88;;;1.92;;
10309;SDS011;5200;43.236;27.986;2022-10-16T14:01:51;4.35;;;1.90;;
10309;SDS011;5200;43.236;27.986;2022-10-16T14:04:21;2.38;;;1.50;;
10309;SDS011;5200;43.236;27.986;2022-10-16T14:06:49;2.72;;;1.35;;
10309;SDS011;5200;43.236;27.986;2022-10-16T14:09:20;2.78;;;1.80;;
10309;SDS011;5200;43.236;27.986;2022-10-16T14:11:51;3.63;;;1.35;;
10309;SDS011;5200;43.236;27.986;2022-10-16T14:14:21;5.28;;;2.28;;
10309;SDS011;5200;43.236;27.986;2022-10-16T14:16:49;2.22;;;1.60;;
10309;SDS011;5200;43.236;27.986;2022-10-16T14:19:18;2.38;;;1.90;;
10309;SDS011;5200;43.236;27.986;2022-10-16T14:21:48;2.28;;;1.98;;
10309;SDS011;5200;43.236;27.986;2022-10-16T14:24:24;4.45;;;1.70;;
10309;SDS011;5200;43.236;27.986;2022-10-16T14:26:53;2.65;;;1.77;;
10309;SDS011;5200;43.236;27.986;2022-10-16T14:29:21;3.42;;;1.80;;
10309;SDS011;5200;43.236;27.986;2022-10-16T14:31:54;2.95;;;2.30;;
10309;SDS011;5200;43.236;27.986;2022-10-16T14:34:23;2.45;;;1.70;;
10309;SDS011;5200;43.236;27.986;2022-10-16T14:36:52;2.15;;;1.92;;
10309;SDS011;5200;43.236;27.986;2022-10-16T14:39:20;2.33;;;2.00;;
10309;SDS011;5200;43.236;27.986;2022-10-16T14:41:51;3.75;;;2.10;;
10309;SDS011;5200;43.236;27.986;2022-10-16T14:44:19;3.45;;;1.90;;
10309;SDS011;5200;43.236;27.986;2022-10-16T14:46:51;3.35;;;2.03;;
10309;SDS011;5200;43.236;27.986;2022-10-16T14:49:19;3.45;;;2.35;;
10309;SDS011;5200;43.236;27.986;2022-10-16T14:51:48;4.38;;;2.00;;
10309;SDS011;5200;43.236;27.986;2022-10-16T14:54:17;2.75;;;2.03;;
10309;SDS011;5200;43.236;27.986;2022-10-16T14:56:47;8.05;;;2.00;;
10309;SDS011;5200;43.236;27.986;2022-10-16T14:59:17;6.97;;;2.33;;
10309;SDS011;5200;43.236;27.986;2022-10-16T15:01:48;3.58;;;2.17;;
10309;SDS011;5200;43.236;27.986;2022-10-16T15:04:15;2.53;;;2.10;;
10309;SDS011;5200;43.236;27.986;2022-10-16T15:06:43;3.42;;;2.47;;
10309;SDS011;5200;43.236;27.986;2022-10-16T15:09:10;3.33;;;2.30;;
10309;SDS011;5200;43.236;27.986;2022-10-16T15:11:37;3.35;;;2.38;;
10309;SDS011;5200;43.236;27.986;2022-10-16T15:14:07;5.95;;;2.10;;
10309;SDS011;5200;43.236;27.986;2022-10-16T15:16:37;2.83;;;2.20;;